createdAt,value
2022-10-30T00:00:51.730Z,100.00
2022-10-30T00:01:48.604Z,100.00
2022-10-30T00:02:47.549Z,100.00
2022-10-30T00:03:44.336Z,100.00
2022-10-30T00:04:41.030Z,100.00
2022-10-30T00:05:40.843Z,100.00
2022-10-30T00:06:37.555Z,100.00
2022-10-30T00:07:34.906Z,100.00
2022-10-30T00:08:31.750Z,100.00
2022-10-30T00:09:28.479Z,100.00
2022-10-30T00:10:25.502Z,100.00
2022-10-30T00:11:22.701Z,100.00
2022-10-30T00:12:19.390Z,100.00
2022-10-30T00:13:16.381Z,100.00
2022-10-30T00:14:13.996Z,100.00
2022-10-30T00:15:11.500Z,100.00
2022-10-30T00:16:09.669Z,100.00
2022-10-30T00:17:06.423Z,100.00
2022-10-30T00:18:03.544Z,100.00
2022-10-30T00:19:00.482Z,100.00
2022-10-30T00:19:57.174Z,100.00
2022-10-30T00:20:53.875Z,100.00
2022-10-30T00:21:50.582Z,100.00
2022-10-30T00:22:47.374Z,100.00
2022-10-30T00:23:52.767Z,100.00
2022-10-30T00:24:49.689Z,100.00
2022-10-30T00:25:46.433Z,100.00
2022-10-30T00:26:43.715Z,100.00
2022-10-30T00:27:40.390Z,100.00
2022-10-30T00:28:37.129Z,100.00
2022-10-30T00:29:33.851Z,100.00
2022-10-30T00:30:30.579Z,100.00
2022-10-30T00:31:27.513Z,100.00
2022-10-30T00:32:24.241Z,100.00
2022-10-30T00:33:20.966Z,100.00
2022-10-30T00:34:17.642Z,100.00
2022-10-30T00:35:14.468Z,100.00
2022-10-30T00:36:11.154Z,100.00
2022-10-30T00:37:07.831Z,100.00
2022-10-30T00:38:04.533Z,100.00
2022-10-30T00:39:01.384Z,100.00
2022-10-30T00:39:58.099Z,100.00
2022-10-30T00:40:54.825Z,100.00
2022-10-30T00:41:52.225Z,100.00
2022-10-30T00:42:48.970Z,100.00
2022-10-30T00:43:46.984Z,100.00
2022-10-30T00:44:53.054Z,100.00
2022-10-30T00:45:49.780Z,100.00
2022-10-30T00:46:46.809Z,100.00
2022-10-30T00:47:51.899Z,100.00
2022-10-30T00:48:56.705Z,100.00
2022-10-30T00:49:57.901Z,100.00
2022-10-30T00:50:58.181Z,100.00
2022-10-30T00:51:55.471Z,100.00
2022-10-30T00:53:01.041Z,100.00
2022-10-30T00:54:02.731Z,100.00
2022-10-30T00:55:05.929Z,100.00
2022-10-30T00:56:08.825Z,100.00
2022-10-30T00:57:09.600Z,100.00
2022-10-30T00:58:11.021Z,100.00
2022-10-30T00:59:10.926Z,100.00
2022-10-30T01:00:09.349Z,100.00
2022-10-30T01:01:14.286Z,100.00
2022-10-30T01:02:11.476Z,100.00
2022-10-30T01:03:08.720Z,100.00
2022-10-30T01:04:07.366Z,100.00
2022-10-30T01:05:04.678Z,100.00
2022-10-30T01:06:07.917Z,100.00
2022-10-30T01:07:14.830Z,100.00
2022-10-30T01:08:11.817Z,100.00
2022-10-30T01:09:09.299Z,100.00
2022-10-30T01:10:07.119Z,100.00
2022-10-30T01:11:05.929Z,100.00
2022-10-30T01:12:02.802Z,100.00
2022-10-30T01:13:01.519Z,100.00
2022-10-30T01:14:06.023Z,100.00
2022-10-30T01:15:03.037Z,100.00
2022-10-30T01:16:18.107Z,100.00
2022-10-30T01:18:01.951Z,100.00
2022-10-30T01:19:01.580Z,100.00
2022-10-30T01:20:14.465Z,100.00
2022-10-30T01:21:31.988Z,100.00
2022-10-30T01:22:40.648Z,100.00
2022-10-30T01:23:37.321Z,100.00
2022-10-30T01:24:49.541Z,100.00
2022-10-30T01:26:12.741Z,100.00
2022-10-30T01:27:26.884Z,100.00
2022-10-30T01:28:42.053Z,100.00
2022-10-30T01:30:01.417Z,100.00
2022-10-30T01:31:19.316Z,100.00
2022-10-30T01:32:47.226Z,100.00
2022-10-30T01:34:17.125Z,100.00
2022-10-30T01:35:38.754Z,100.00
2022-10-30T01:36:52.240Z,100.00
2022-10-30T01:37:57.518Z,100.00
2022-10-30T01:38:59.972Z,100.00
2022-10-30T01:39:56.644Z,100.00
2022-10-30T01:40:53.370Z,100.00
2022-10-30T01:41:50.271Z,100.00
2022-10-30T01:42:51.885Z,100.00
2022-10-30T01:43:55.037Z,100.00
2022-10-30T01:44:51.862Z,100.00
2022-10-30T01:46:11.007Z,100.00
2022-10-30T01:47:49.895Z,100.00
2022-10-30T01:49:14.166Z,100.00
2022-10-30T01:50:25.677Z,100.00
2022-10-30T01:51:34.442Z,100.00
2022-10-30T01:53:08.451Z,100.00
2022-10-30T01:54:23.905Z,100.00
2022-10-30T01:55:26.535Z,100.00
2022-10-30T01:56:45.037Z,100.00
2022-10-30T01:57:56.680Z,100.00
2022-10-30T01:59:35.505Z,100.00
2022-10-30T02:00:32.337Z,100.00
2022-10-30T02:01:33.356Z,100.00
2022-10-30T02:02:31.483Z,100.00
2022-10-30T02:03:28.642Z,100.00
2022-10-30T02:04:25.653Z,100.00
2022-10-30T02:05:35.358Z,100.00
2022-10-30T02:06:32.149Z,100.00
2022-10-30T02:07:28.931Z,100.00
2022-10-30T02:08:27.289Z,100.00
2022-10-30T02:09:24.780Z,100.00
2022-10-30T02:10:21.695Z,100.00
2022-10-30T02:11:18.471Z,100.00
2022-10-30T02:12:15.789Z,100.00
2022-10-30T02:13:12.464Z,100.00
2022-10-30T02:14:10.564Z,100.00
2022-10-30T02:15:07.966Z,100.00
2022-10-30T02:16:05.292Z,100.00
2022-10-30T02:17:05.878Z,100.00
2022-10-30T02:18:02.897Z,100.00
2022-10-30T02:18:59.631Z,100.00
2022-10-30T02:19:56.332Z,100.00
2022-10-30T02:20:53.958Z,100.00
2022-10-30T02:21:51.549Z,100.00
2022-10-30T02:22:52.959Z,100.00
2022-10-30T02:23:53.065Z,100.00
2022-10-30T02:24:49.761Z,100.00
2022-10-30T02:25:46.797Z,100.00
2022-10-30T02:26:43.552Z,100.00
2022-10-30T02:27:40.377Z,100.00
2022-10-30T02:28:37.076Z,100.00
2022-10-30T02:29:33.820Z,100.00
2022-10-30T02:30:30.685Z,100.00
2022-10-30T02:31:27.379Z,100.00
2022-10-30T02:32:24.119Z,100.00
2022-10-30T02:33:20.805Z,100.00
2022-10-30T02:34:18.226Z,100.00
2022-10-30T02:35:15.000Z,100.00
2022-10-30T02:36:11.712Z,100.00
2022-10-30T02:37:09.067Z,100.00
2022-10-30T02:38:05.759Z,100.00
2022-10-30T02:39:02.481Z,100.00
2022-10-30T02:39:59.789Z,100.00
2022-10-30T02:40:58.549Z,100.00
2022-10-30T02:41:55.252Z,100.00
2022-10-30T02:42:53.437Z,100.00
2022-10-30T02:43:53.385Z,100.00
2022-10-30T02:44:50.129Z,100.00
2022-10-30T02:45:51.339Z,100.00
2022-10-30T02:46:48.070Z,100.00
2022-10-30T02:47:44.756Z,100.00
2022-10-30T02:48:41.436Z,100.00
2022-10-30T02:49:38.169Z,100.00
2022-10-30T02:50:34.928Z,100.00
2022-10-30T02:51:32.688Z,100.00
2022-10-30T02:52:29.357Z,100.00
2022-10-30T02:53:26.062Z,100.00
2022-10-30T02:54:22.878Z,100.00
2022-10-30T02:55:20.045Z,100.00
2022-10-30T02:56:17.121Z,100.00
2022-10-30T02:57:13.818Z,100.00
2022-10-30T02:58:10.529Z,100.00
2022-10-30T02:59:07.372Z,100.00
2022-10-30T03:00:04.994Z,100.00
2022-10-30T03:01:09.761Z,100.00
2022-10-30T03:02:06.620Z,100.00
2022-10-30T03:03:03.374Z,100.00
2022-10-30T03:04:00.099Z,100.00
2022-10-30T03:04:56.823Z,100.00
2022-10-30T03:05:53.517Z,100.00
2022-10-30T03:06:50.240Z,100.00
2022-10-30T03:07:48.733Z,100.00
2022-10-30T03:08:45.503Z,100.00
2022-10-30T03:09:42.252Z,100.00
2022-10-30T03:10:38.934Z,100.00
2022-10-30T03:11:35.979Z,100.00
2022-10-30T03:12:32.943Z,100.00
2022-10-30T03:13:33.016Z,100.00
2022-10-30T03:14:29.717Z,100.00
2022-10-30T03:15:26.405Z,100.00
2022-10-30T03:16:25.306Z,100.00
2022-10-30T03:17:22.098Z,100.00
2022-10-30T03:18:18.813Z,100.00
2022-10-30T03:19:15.625Z,100.00
2022-10-30T03:20:12.892Z,100.00
2022-10-30T03:21:13.683Z,100.00
2022-10-30T03:22:10.437Z,100.00
2022-10-30T03:23:07.143Z,100.00
2022-10-30T03:24:04.052Z,100.00
2022-10-30T03:25:00.764Z,100.00
2022-10-30T03:25:59.148Z,100.00
2022-10-30T03:26:55.852Z,100.00
2022-10-30T03:27:52.847Z,100.00
2022-10-30T03:28:49.564Z,100.00
2022-10-30T03:29:46.240Z,100.00
2022-10-30T03:30:42.923Z,100.00
2022-10-30T03:31:39.674Z,100.00
2022-10-30T03:32:36.485Z,100.00
2022-10-30T03:33:34.797Z,100.00
2022-10-30T03:34:31.477Z,100.00
2022-10-30T03:35:28.133Z,100.00
2022-10-30T03:36:26.460Z,100.00
2022-10-30T03:37:23.128Z,100.00
2022-10-30T03:38:19.819Z,100.00
2022-10-30T03:39:16.541Z,100.00
2022-10-30T03:40:13.259Z,100.00
2022-10-30T03:41:10.078Z,100.00
2022-10-30T03:42:06.805Z,100.00
2022-10-30T03:43:04.098Z,100.00
2022-10-30T03:44:00.922Z,100.00
2022-10-30T03:44:57.604Z,100.00
2022-10-30T03:45:56.634Z,100.00
2022-10-30T03:46:53.320Z,100.00
2022-10-30T03:47:50.019Z,100.00
2022-10-30T03:48:50.112Z,100.00
2022-10-30T03:49:46.804Z,100.00
2022-10-30T03:50:44.285Z,100.00
2022-10-30T03:51:41.122Z,100.00
2022-10-30T03:52:37.848Z,100.00
2022-10-30T03:53:52.779Z,100.00
2022-10-30T03:54:49.448Z,100.00
2022-10-30T03:55:46.169Z,100.00
2022-10-30T03:56:44.682Z,100.00
2022-10-30T03:57:41.357Z,100.00
2022-10-30T03:58:38.044Z,100.00
2022-10-30T03:59:34.803Z,100.00
2022-10-30T04:00:32.858Z,100.00
2022-10-30T04:01:29.660Z,100.00
2022-10-30T04:02:26.413Z,100.00
2022-10-30T04:03:23.182Z,100.00
2022-10-30T04:04:19.880Z,100.00
2022-10-30T04:05:19.552Z,100.00
2022-10-30T04:06:16.259Z,100.00
2022-10-30T04:07:12.944Z,100.00
2022-10-30T04:08:14.784Z,100.00
2022-10-30T04:09:11.502Z,100.00
2022-10-30T04:10:08.686Z,100.00
2022-10-30T04:11:05.718Z,100.00
2022-10-30T04:12:02.541Z,100.00
2022-10-30T04:13:04.526Z,100.00
2022-10-30T04:14:01.237Z,100.00
2022-10-30T04:14:57.966Z,100.00
2022-10-30T04:15:57.908Z,100.00
2022-10-30T04:16:55.145Z,100.00
2022-10-30T04:17:51.852Z,100.00
2022-10-30T04:18:48.548Z,100.00
2022-10-30T04:19:45.270Z,100.00
2022-10-30T04:20:43.107Z,100.00
2022-10-30T04:21:39.944Z,100.00
2022-10-30T04:22:36.745Z,100.00
2022-10-30T04:23:33.441Z,100.00
2022-10-30T04:24:30.152Z,100.00
2022-10-30T04:25:29.160Z,100.00
2022-10-30T04:26:25.883Z,100.00
2022-10-30T04:27:22.671Z,100.00
2022-10-30T04:28:21.280Z,100.00
2022-10-30T04:29:17.993Z,100.00
2022-10-30T04:30:14.796Z,100.00
2022-10-30T04:31:11.540Z,100.00
2022-10-30T04:32:09.149Z,100.00
2022-10-30T04:33:10.620Z,100.00
2022-10-30T04:34:07.361Z,100.00
2022-10-30T04:35:04.433Z,100.00
2022-10-30T04:36:01.129Z,100.00
2022-10-30T04:36:57.789Z,100.00
2022-10-30T04:37:55.169Z,100.00
2022-10-30T04:38:51.821Z,100.00
2022-10-30T04:39:49.433Z,100.00
2022-10-30T04:40:46.228Z,100.00
2022-10-30T04:41:42.899Z,100.00
2022-10-30T04:42:39.579Z,100.00
2022-10-30T04:43:36.263Z,100.00
2022-10-30T04:44:33.034Z,100.00
2022-10-30T04:45:29.778Z,100.00
2022-10-30T04:46:26.470Z,100.00
2022-10-30T04:47:23.226Z,100.00
2022-10-30T04:48:19.980Z,100.00
2022-10-30T04:49:16.681Z,100.00
2022-10-30T04:50:14.542Z,100.00
2022-10-30T04:51:11.821Z,100.00
2022-10-30T04:52:08.524Z,100.00
2022-10-30T04:53:08.845Z,100.00
2022-10-30T04:54:05.766Z,100.00
2022-10-30T04:55:03.341Z,100.00
2022-10-30T04:56:00.051Z,100.00
2022-10-30T04:56:56.748Z,100.00
2022-10-30T04:57:57.773Z,100.00
2022-10-30T04:58:54.633Z,100.00
2022-10-30T04:59:51.336Z,100.00
2022-10-30T05:00:48.059Z,100.00
2022-10-30T05:01:44.876Z,100.00
2022-10-30T05:02:41.775Z,100.00
2022-10-30T05:03:38.572Z,100.00
2022-10-30T05:04:35.264Z,100.00
2022-10-30T05:05:32.506Z,100.00
2022-10-30T05:06:31.064Z,100.00
2022-10-30T05:07:27.835Z,100.00
2022-10-30T05:08:24.789Z,100.00
2022-10-30T05:09:21.525Z,100.00
2022-10-30T05:10:18.479Z,100.00
2022-10-30T05:11:15.954Z,100.00
2022-10-30T05:12:12.680Z,100.00
2022-10-30T05:13:11.433Z,100.00
2022-10-30T05:14:08.163Z,100.00
2022-10-30T05:15:05.315Z,100.00
2022-10-30T05:16:02.024Z,100.00
2022-10-30T05:16:59.192Z,100.00
2022-10-30T05:17:56.289Z,100.00
2022-10-30T05:18:53.320Z,100.00
2022-10-30T05:19:50.045Z,100.00
2022-10-30T05:20:47.473Z,100.00
2022-10-30T05:21:44.167Z,100.00
2022-10-30T05:22:40.841Z,100.00
2022-10-30T05:23:37.517Z,100.00
2022-10-30T05:24:34.234Z,100.00
2022-10-30T05:25:31.685Z,100.00
2022-10-30T05:26:28.423Z,100.00
2022-10-30T05:27:25.213Z,100.00
2022-10-30T05:28:21.893Z,100.00
2022-10-30T05:29:19.610Z,100.00
2022-10-30T05:30:16.876Z,100.00
2022-10-30T05:31:13.563Z,100.00
2022-10-30T05:32:10.286Z,100.00
2022-10-30T05:33:10.483Z,100.00
2022-10-30T05:34:07.551Z,100.00
2022-10-30T05:35:04.785Z,100.00
2022-10-30T05:36:01.920Z,100.00
2022-10-30T05:36:58.653Z,100.00
2022-10-30T05:37:55.357Z,100.00
2022-10-30T05:38:52.154Z,100.00
2022-10-30T05:39:48.868Z,100.00
2022-10-30T05:40:47.055Z,100.00
2022-10-30T05:41:43.767Z,100.00
2022-10-30T05:42:48.358Z,100.00
2022-10-30T05:43:45.082Z,100.00
2022-10-30T05:44:59.707Z,100.00
2022-10-30T05:45:56.840Z,100.00
2022-10-30T05:46:53.520Z,100.00
2022-10-30T05:48:02.274Z,100.00
2022-10-30T05:49:00.635Z,100.00
2022-10-30T05:49:57.359Z,100.00
2022-10-30T05:50:55.858Z,100.00
2022-10-30T05:51:52.601Z,100.00
2022-10-30T05:52:49.338Z,100.00
2022-10-30T05:53:49.092Z,100.00
2022-10-30T05:54:45.791Z,100.00
2022-10-30T05:55:42.561Z,100.00
2022-10-30T05:56:39.382Z,100.00
2022-10-30T05:57:36.053Z,100.00
2022-10-30T05:58:32.803Z,100.00
2022-10-30T05:59:29.485Z,100.00
2022-10-30T06:00:31.770Z,100.00
2022-10-30T06:01:28.528Z,100.00
2022-10-30T06:02:25.424Z,100.00
2022-10-30T06:03:22.288Z,100.00
2022-10-30T06:04:18.978Z,100.00
2022-10-30T06:05:15.800Z,100.00
2022-10-30T06:06:12.686Z,100.00
2022-10-30T06:07:10.815Z,100.00
2022-10-30T06:08:08.205Z,100.00
2022-10-30T06:09:04.896Z,100.00
2022-10-30T06:10:01.610Z,100.00
2022-10-30T06:10:58.314Z,100.00
2022-10-30T06:11:55.105Z,100.00
2022-10-30T06:13:01.194Z,100.00
2022-10-30T06:13:58.428Z,100.00
2022-10-30T06:14:55.112Z,100.00
2022-10-30T06:15:55.995Z,100.00
2022-10-30T06:16:52.678Z,100.00
2022-10-30T06:17:49.502Z,100.00
2022-10-30T06:18:46.326Z,100.00
2022-10-30T06:19:43.024Z,100.00
2022-10-30T06:20:39.709Z,100.00
2022-10-30T06:21:36.408Z,100.00
2022-10-30T06:22:33.068Z,100.00
2022-10-30T06:23:29.756Z,100.00
2022-10-30T06:24:26.456Z,100.00
2022-10-30T06:25:24.074Z,100.00
2022-10-30T06:26:20.777Z,100.00
2022-10-30T06:27:17.468Z,100.00
2022-10-30T06:28:14.860Z,100.00
2022-10-30T06:29:12.017Z,100.00
2022-10-30T06:30:08.961Z,100.00
2022-10-30T06:31:06.198Z,100.00
2022-10-30T06:32:06.492Z,100.00
2022-10-30T06:33:05.531Z,100.00
2022-10-30T06:34:02.269Z,100.00
2022-10-30T06:34:58.968Z,100.00
2022-10-30T06:35:55.640Z,100.00
2022-10-30T06:36:52.410Z,100.00
2022-10-30T06:37:49.724Z,100.00
2022-10-30T06:38:46.469Z,100.00
2022-10-30T06:39:43.193Z,100.00
2022-10-30T06:40:39.935Z,100.00
2022-10-30T06:41:36.613Z,100.00
2022-10-30T06:42:33.343Z,100.00
2022-10-30T06:43:30.160Z,100.00
2022-10-30T06:44:26.848Z,100.00
2022-10-30T06:45:24.982Z,100.00
2022-10-30T06:46:22.158Z,100.00
2022-10-30T06:47:19.416Z,100.00
2022-10-30T06:48:16.166Z,100.00
2022-10-30T06:49:12.847Z,100.00
2022-10-30T06:50:12.579Z,100.00
2022-10-30T06:51:09.517Z,100.00
2022-10-30T06:52:06.213Z,100.00
2022-10-30T06:53:03.049Z,100.00
2022-10-30T06:53:59.712Z,100.00
2022-10-30T06:54:56.369Z,100.00
2022-10-30T06:56:03.712Z,100.00
2022-10-30T06:57:00.740Z,100.00
2022-10-30T06:57:58.087Z,100.00
2022-10-30T06:58:55.076Z,100.00
2022-10-30T06:59:52.369Z,100.00
2022-10-30T07:01:46.895Z,100.00
2022-10-30T07:02:43.669Z,100.00
2022-10-30T07:03:40.394Z,100.00
2022-10-30T07:04:37.131Z,100.00
2022-10-30T07:05:33.808Z,100.00
2022-10-30T07:06:30.633Z,100.00
2022-10-30T07:07:27.365Z,100.00
2022-10-30T07:08:24.638Z,100.00
2022-10-30T07:09:21.315Z,100.00
2022-10-30T07:10:18.467Z,100.00
2022-10-30T07:11:15.227Z,100.00
2022-10-30T07:12:12.525Z,100.00
2022-10-30T07:13:09.702Z,100.00
2022-10-30T07:14:06.425Z,100.00
2022-10-30T07:15:03.409Z,100.00
2022-10-30T07:16:00.183Z,100.00
2022-10-30T07:16:57.229Z,100.00
2022-10-30T07:17:58.951Z,100.00
2022-10-30T07:18:58.220Z,100.00
2022-10-30T07:19:57.302Z,100.00
2022-10-30T07:20:58.240Z,100.00
2022-10-30T07:21:54.986Z,100.00
2022-10-30T07:22:52.060Z,100.00
2022-10-30T07:23:48.795Z,100.00
2022-10-30T07:24:45.499Z,100.00
2022-10-30T07:25:42.213Z,100.00
2022-10-30T07:26:39.447Z,100.00
2022-10-30T07:27:43.502Z,100.00
2022-10-30T07:28:40.220Z,100.00
2022-10-30T07:29:36.890Z,100.00
2022-10-30T07:30:33.578Z,100.00
2022-10-30T07:31:42.382Z,100.00
2022-10-30T07:32:39.572Z,100.00
2022-10-30T07:33:36.261Z,100.00
2022-10-30T07:34:32.959Z,100.00
2022-10-30T07:35:31.395Z,100.00
2022-10-30T07:36:28.168Z,100.00
2022-10-30T07:37:24.854Z,100.00
2022-10-30T07:38:21.551Z,100.00
2022-10-30T07:39:18.321Z,100.00
2022-10-30T07:40:15.067Z,100.00
2022-10-30T07:41:11.744Z,100.00
2022-10-30T07:42:08.416Z,100.00
2022-10-30T07:43:05.880Z,100.00
2022-10-30T07:44:02.755Z,100.00
2022-10-30T07:44:59.519Z,100.00
2022-10-30T07:45:56.770Z,100.00
2022-10-30T07:46:53.491Z,100.00
2022-10-30T07:47:50.204Z,100.00
2022-10-30T07:48:46.969Z,100.00
2022-10-30T07:49:43.674Z,100.00
2022-10-30T07:50:40.403Z,100.00
2022-10-30T07:51:37.111Z,100.00
2022-10-30T07:52:34.245Z,100.00
2022-10-30T07:53:31.077Z,100.00
2022-10-30T07:54:27.797Z,100.00
2022-10-30T07:55:24.450Z,100.00
2022-10-30T07:56:21.128Z,100.00
2022-10-30T07:57:17.901Z,100.00
2022-10-30T07:58:14.630Z,100.00
2022-10-30T07:59:11.408Z,100.00
2022-10-30T08:00:11.243Z,100.00
2022-10-30T08:01:08.025Z,100.00
2022-10-30T08:02:04.890Z,100.00
2022-10-30T08:03:02.250Z,100.00
2022-10-30T08:03:59.218Z,100.00
2022-10-30T08:04:55.913Z,100.00
2022-10-30T08:05:52.563Z,100.00
2022-10-30T08:06:49.262Z,100.00
2022-10-30T08:07:47.926Z,100.00
2022-10-30T08:08:44.615Z,100.00
2022-10-30T08:09:41.357Z,100.00
2022-10-30T08:10:38.225Z,100.00
2022-10-30T08:11:35.001Z,100.00
2022-10-30T08:12:34.294Z,100.00
2022-10-30T08:13:30.973Z,100.00
2022-10-30T08:14:27.680Z,100.00
2022-10-30T08:15:25.132Z,100.00
2022-10-30T08:16:21.966Z,100.00
2022-10-30T08:17:18.723Z,100.00
2022-10-30T08:18:15.400Z,100.00
2022-10-30T08:19:12.125Z,100.00
2022-10-30T08:20:09.596Z,100.00
2022-10-30T08:21:06.285Z,100.00
2022-10-30T08:22:03.003Z,100.00
2022-10-30T08:22:59.910Z,100.00
2022-10-30T08:23:56.783Z,100.00
2022-10-30T08:24:53.443Z,100.00
2022-10-30T08:25:50.221Z,100.00
2022-10-30T08:26:46.905Z,100.00
2022-10-30T08:27:55.443Z,100.00
2022-10-30T08:28:52.144Z,100.00
2022-10-30T08:29:48.835Z,100.00
2022-10-30T08:30:45.591Z,100.00
2022-10-30T08:31:42.282Z,100.00
2022-10-30T08:32:39.027Z,100.00
2022-10-30T08:33:35.778Z,100.00
2022-10-30T08:34:34.361Z,100.00
2022-10-30T08:35:32.543Z,100.00
2022-10-30T08:36:29.289Z,100.00
2022-10-30T08:37:25.991Z,100.00
2022-10-30T08:38:23.397Z,100.00
2022-10-30T08:39:20.705Z,100.00
2022-10-30T08:40:17.389Z,100.00
2022-10-30T08:41:14.109Z,100.00
2022-10-30T08:42:10.821Z,100.00
2022-10-30T08:43:08.651Z,100.00
2022-10-30T08:44:05.455Z,100.00
2022-10-30T08:45:02.149Z,100.00
2022-10-30T08:45:58.857Z,100.00
2022-10-30T08:46:55.564Z,100.00
2022-10-30T08:48:00.896Z,100.00
2022-10-30T08:48:58.070Z,100.00
2022-10-30T08:49:54.901Z,100.00
2022-10-30T08:50:51.672Z,100.00
2022-10-30T08:51:48.388Z,100.00
2022-10-30T08:52:45.205Z,100.00
2022-10-30T08:53:42.656Z,100.00
2022-10-30T08:54:39.374Z,100.00
2022-10-30T08:55:36.346Z,100.00
2022-10-30T08:56:33.044Z,100.00
2022-10-30T08:57:36.352Z,100.00
2022-10-30T08:58:33.013Z,100.00
2022-10-30T08:59:29.696Z,100.00
2022-10-30T09:00:27.467Z,100.00
2022-10-30T09:01:24.337Z,100.00
2022-10-30T09:02:21.112Z,100.00
2022-10-30T09:03:17.898Z,100.00
2022-10-30T09:04:14.601Z,100.00
2022-10-30T09:05:11.589Z,100.00
2022-10-30T09:06:08.410Z,100.00
2022-10-30T09:07:07.557Z,100.00
2022-10-30T09:08:07.113Z,100.00
2022-10-30T09:09:03.870Z,100.00
2022-10-30T09:10:01.825Z,100.00
2022-10-30T09:10:59.275Z,100.00
2022-10-30T09:11:56.013Z,100.00
2022-10-30T09:12:57.138Z,100.00
2022-10-30T09:13:53.908Z,100.00
2022-10-30T09:14:50.609Z,100.00
2022-10-30T09:15:47.312Z,100.00
2022-10-30T09:16:44.033Z,100.00
2022-10-30T09:17:40.736Z,100.00
2022-10-30T09:18:37.410Z,100.00
2022-10-30T09:19:34.176Z,100.00
2022-10-30T09:20:31.601Z,100.00
2022-10-30T09:21:28.290Z,100.00
2022-10-30T09:22:25.001Z,100.00
2022-10-30T09:23:21.959Z,100.00
2022-10-30T09:24:18.705Z,100.00
2022-10-30T09:25:15.459Z,100.00
2022-10-30T09:26:16.789Z,100.00
2022-10-30T09:27:15.297Z,100.00
2022-10-30T09:28:12.082Z,100.00
2022-10-30T09:29:08.777Z,100.00
2022-10-30T09:30:06.356Z,100.00
2022-10-30T09:31:03.632Z,100.00
2022-10-30T09:32:00.542Z,100.00
2022-10-30T09:33:04.977Z,100.00
2022-10-30T09:34:01.901Z,100.00
2022-10-30T09:34:58.558Z,100.00
2022-10-30T09:35:55.352Z,100.00
2022-10-30T09:36:52.059Z,100.00
2022-10-30T09:37:48.833Z,100.00
2022-10-30T09:38:45.642Z,100.00
2022-10-30T09:39:42.406Z,100.00
2022-10-30T09:40:57.843Z,100.00
2022-10-30T09:42:37.640Z,100.00
2022-10-30T09:43:51.090Z,100.00
2022-10-30T09:45:23.388Z,100.00
2022-10-30T09:46:41.425Z,100.00
2022-10-30T09:47:46.998Z,100.00
2022-10-30T09:48:55.745Z,100.00
2022-10-30T09:50:20.196Z,100.00
2022-10-30T09:51:36.762Z,100.00
2022-10-30T09:52:58.290Z,100.00
2022-10-30T09:54:20.029Z,100.00
2022-10-30T09:55:51.461Z,100.00
2022-10-30T09:56:59.408Z,100.00
2022-10-30T09:58:06.674Z,100.00
2022-10-30T09:59:25.169Z,100.00
2022-10-30T10:00:30.983Z,100.00
2022-10-30T10:01:42.906Z,100.00
2022-10-30T10:02:42.811Z,100.00
2022-10-30T10:04:04.212Z,100.00
2022-10-30T10:05:12.788Z,100.00
2022-10-30T10:06:18.816Z,98.84
2022-10-30T10:07:23.227Z,98.51
2022-10-30T10:08:45.249Z,99.45
2022-10-30T10:09:44.758Z,99.99
2022-10-30T10:10:50.887Z,98.00
2022-10-30T10:11:58.868Z,97.17
2022-10-30T10:13:01.136Z,96.12
2022-10-30T10:14:09.517Z,97.13
2022-10-30T10:15:21.878Z,95.30
2022-10-30T10:16:28.493Z,93.34
2022-10-30T10:17:34.908Z,91.57
2022-10-30T10:19:16.383Z,91.03
2022-10-30T10:20:37.387Z,91.01
2022-10-30T10:21:44.821Z,90.10
2022-10-30T10:22:49.953Z,89.87
2022-10-30T10:23:53.104Z,89.86
2022-10-30T10:24:50.661Z,89.47
2022-10-30T10:25:53.990Z,89.81
2022-10-30T10:27:00.028Z,89.65
2022-10-30T10:28:06.822Z,87.77
2022-10-30T10:29:21.955Z,86.04
2022-10-30T10:30:23.137Z,86.72
2022-10-30T10:31:38.867Z,86.28
2022-10-30T10:33:18.705Z,85.53
2022-10-30T10:34:33.934Z,83.68
2022-10-30T10:35:30.585Z,84.38
2022-10-30T10:36:39.132Z,83.08
2022-10-30T10:38:02.301Z,82.38
2022-10-30T10:39:19.941Z,82.02
2022-10-30T10:40:28.384Z,80.70
2022-10-30T10:42:06.577Z,80.71
2022-10-30T10:43:41.995Z,78.88
2022-10-30T10:45:22.286Z,77.02
2022-10-30T10:46:34.023Z,75.53
2022-10-30T10:47:52.423Z,74.64
2022-10-30T10:49:21.278Z,73.85
2022-10-30T10:50:31.634Z,73.89
2022-10-30T10:51:37.783Z,73.90
2022-10-30T10:52:47.673Z,74.02
2022-10-30T10:53:44.392Z,72.93
2022-10-30T10:54:46.565Z,72.68
2022-10-30T10:55:49.945Z,74.18
2022-10-30T10:56:51.392Z,74.37
2022-10-30T10:57:48.573Z,73.97
2022-10-30T10:59:03.959Z,73.79
2022-10-30T11:00:14.190Z,72.33
2022-10-30T11:01:20.328Z,72.32
2022-10-30T11:02:35.764Z,72.20
2022-10-30T11:03:52.740Z,72.48
2022-10-30T11:04:55.446Z,71.49
2022-10-30T11:06:23.964Z,71.07
2022-10-30T11:07:36.772Z,70.29
2022-10-30T11:08:35.441Z,69.33
2022-10-30T11:09:32.128Z,68.92
2022-10-30T11:10:28.801Z,68.62
2022-10-30T11:11:25.538Z,67.97
2022-10-30T11:12:41.254Z,68.30
2022-10-30T11:13:41.401Z,68.12
2022-10-30T11:14:38.126Z,68.39
2022-10-30T11:15:46.973Z,67.61
2022-10-30T11:16:46.404Z,67.48
2022-10-30T11:17:54.918Z,67.99
2022-10-30T11:18:58.315Z,67.17
2022-10-30T11:20:02.935Z,66.60
2022-10-30T11:21:18.925Z,66.64
2022-10-30T11:22:29.786Z,67.09
2022-10-30T11:23:35.564Z,66.77
2022-10-30T11:24:34.884Z,65.41
2022-10-30T11:25:36.577Z,65.09
2022-10-30T11:26:34.628Z,65.34
2022-10-30T11:27:31.617Z,64.99
2022-10-30T11:28:48.694Z,64.88
2022-10-30T11:29:58.615Z,65.31
2022-10-30T11:31:30.260Z,65.02
2022-10-30T11:32:30.713Z,64.16
2022-10-30T11:33:30.585Z,63.93
2022-10-30T11:34:45.276Z,63.40
2022-10-30T11:35:42.550Z,62.20
2022-10-30T11:36:39.212Z,62.42
2022-10-30T11:37:38.212Z,62.52
2022-10-30T11:38:34.928Z,62.01
2022-10-30T11:39:34.934Z,61.28
2022-10-30T11:40:31.621Z,62.20
2022-10-30T11:41:28.350Z,61.55
2022-10-30T11:42:25.641Z,61.47
2022-10-30T11:43:25.613Z,60.47
2022-10-30T11:44:29.208Z,60.65
2022-10-30T11:45:31.104Z,60.48
2022-10-30T11:46:28.136Z,60.41
2022-10-30T11:48:34.274Z,61.27
2022-10-30T11:49:52.332Z,61.54
2022-10-30T11:50:52.213Z,61.20
2022-10-30T11:51:49.391Z,60.94
2022-10-30T11:52:49.627Z,59.65
2022-10-30T11:53:50.905Z,58.95
2022-10-30T11:54:59.949Z,58.80
2022-10-30T11:55:58.858Z,58.55
2022-10-30T11:56:58.636Z,58.40
2022-10-30T11:57:58.386Z,58.26
2022-10-30T11:58:59.198Z,57.36
2022-10-30T12:00:02.106Z,56.83
2022-10-30T12:01:04.803Z,57.81
2022-10-30T12:02:19.464Z,58.11
2022-10-30T12:03:39.357Z,58.26
2022-10-30T12:04:36.147Z,58.87
2022-10-30T12:05:44.991Z,57.74
2022-10-30T12:06:43.240Z,56.60
2022-10-30T12:07:39.923Z,55.95
2022-10-30T12:08:36.997Z,55.34
2022-10-30T12:09:43.258Z,55.43
2022-10-30T12:10:45.729Z,55.40
2022-10-30T12:11:44.966Z,55.00
2022-10-30T12:12:43.515Z,54.29
2022-10-30T12:13:40.845Z,54.39
2022-10-30T12:14:37.583Z,53.54
2022-10-30T12:15:37.439Z,54.09
2022-10-30T12:16:34.294Z,53.38
2022-10-30T12:17:31.585Z,53.47
2022-10-30T12:19:32.444Z,53.36
2022-10-30T12:20:29.926Z,53.45
2022-10-30T12:21:31.608Z,51.91
2022-10-30T12:22:32.214Z,51.85
2022-10-30T12:23:29.596Z,51.68
2022-10-30T12:24:34.229Z,51.82
2022-10-30T12:25:32.440Z,52.19
2022-10-30T12:26:30.533Z,52.22
2022-10-30T12:27:27.558Z,51.45
2022-10-30T12:28:28.543Z,51.41
2022-10-30T12:30:07.015Z,51.66
2022-10-30T12:31:05.769Z,50.52
2022-10-30T12:32:09.326Z,49.73
2022-10-30T12:33:12.479Z,49.86
2022-10-30T12:34:29.761Z,50.00
2022-10-30T12:35:44.783Z,49.85
2022-10-30T12:36:50.616Z,48.44
2022-10-30T12:37:53.790Z,49.53
2022-10-30T12:39:03.925Z,48.90
2022-10-30T12:40:11.930Z,48.92
2022-10-30T12:41:14.263Z,48.78
2022-10-30T12:42:17.511Z,48.68
2022-10-30T12:43:24.689Z,49.04